首页
METAR-TAF:

METAR-TAF

机场 :

Barkley Regional Airport

Paducah, 肯塔基州, 美国

纬度: 37-03-23N, 经度: 088-46-26W, 海拔: 125米

当前天气观测

该预报发布于1小时和0分钟前的03:53 UTC
静风
温度 24°C
湿度 89%
气压 1015 hPa
能見度: 16.1公里
天空无云

METAR: KPAH 070353Z 00000KT 10SM CLR 24/22 A2997 RMK AO2 SLP145 T02390222

时间: 23:53 (04:53 UTC)

预报

该预报发布于5小时和18分钟前的23:35 UTC
预报有效从07日的 00点(UTC)到 07日的 24点(UTC)
风速节,风向
能見度: 10公里
散云层高于4500英尺
多云层高于15000英尺
从 07日的 0500点(UTC)
风速节,风向
能見度: 10公里
少量云层高于25000英尺
从 07日的 1700点(UTC)
风速节,风向
能見度: 10公里
少量云层高于3500英尺
散云层高于20000英尺

TAF: KPAH 062335Z 0700/0724 00000KT P6SM SCT045 BKN150 FM070500 00000KT P6SM FEW250 FM071700 00000KT P6SM FEW035 SCT200

超过4000个机场的气象观测和天气预报(METAR&TAF报告)。

可查询的气象台以黄色和红色小点在地图上表示。

将鼠标移到小点上方,可查看气象台名称。

然后点击查看天气观测和预报。

如需切换地图:点击带黑十字的绿色按钮放大地图;点击带横线的绿色按钮缩小地图;或者点击绿色箭头查看邻近地区的地图。


METAR-TAF: